Time;durP1;ratioP1;P1;durP2;ratioP2;P2;SDS_P1;SDS_P2;PMS_P1;PMS_P2;Temp;Humidity;BMP_temperature;BMP_pressure;BME280_temperature;BME280_humidity;BME280_pressure;Samples;Min_cycle;Max_cycle;Signal;HPM_P1;HPM_P2
2023/04/29 00:01:04;;;;;;;55.15;35.53;;;9.00;99.90;;;;;;5005661;28;20062;-78
2023/04/29 00:03:31;;;;;;;52.45;32.92;;;9.00;99.90;;;;;;4999317;28;20023;-78
2023/04/29 00:05:57;;;;;;;55.78;34.03;;;9.00;99.90;;;;;;5007991;28;20032;-78
2023/04/29 00:08:23;;;;;;;57.92;34.28;;;9.00;99.90;;;;;;5005028;28;20056;-77
2023/04/29 00:10:49;;;;;;;52.88;33.63;;;9.00;99.90;;;;;;5008316;28;20030;-78
2023/04/29 00:13:15;;;;;;;57.65;33.92;;;9.00;99.90;;;;;;5002613;28;20044;-78
2023/04/29 00:15:41;;;;;;;48.08;33.45;;;9.00;99.90;;;;;;5009995;28;20025;-78
2023/04/29 00:18:08;;;;;;;47.80;32.38;;;9.00;99.90;;;;;;5014912;28;20455;-78
2023/04/29 00:20:33;;;;;;;56.38;33.40;;;9.00;99.90;;;;;;5014072;28;20097;-78
2023/04/29 00:22:59;;;;;;;57.22;33.78;;;9.00;99.90;;;;;;5016036;28;20030;-78
2023/04/29 00:25:25;;;;;;;56.13;33.60;;;9.00;99.90;;;;;;5007391;28;20121;-78
2023/04/29 00:27:50;;;;;;;57.67;32.83;;;9.00;99.90;;;;;;4996646;28;20260;-78
2023/04/29 00:30:16;;;;;;;50.10;32.00;;;9.00;99.90;;;;;;5007028;28;20688;-78
2023/04/29 00:32:42;;;;;;;54.88;34.25;;;8.90;99.90;;;;;;5002882;28;20077;-78
2023/04/29 00:35:08;;;;;;;47.88;32.22;;;8.90;99.90;;;;;;5002234;28;20111;-78
2023/04/29 00:37:34;;;;;;;58.67;34.40;;;8.90;99.80;;;;;;5004735;28;20030;-78
2023/04/29 00:40:03;;;;;;;55.28;35.85;;;8.80;99.80;;;;;;5000076;28;20026;-78
2023/04/29 00:42:32;;;;;;;56.40;34.00;;;8.90;99.90;;;;;;5002644;28;20026;-78
2023/04/29 00:44:57;;;;;;;57.50;34.65;;;8.90;99.90;;;;;;5006173;28;20033;-78
2023/04/29 00:47:23;;;;;;;59.63;34.47;;;8.80;99.90;;;;;;5004730;28;20030;-78
2023/04/29 00:49:48;;;;;;;52.55;34.53;;;8.80;99.90;;;;;;5009305;28;20389;-78
2023/04/29 00:52:15;;;;;;;50.55;32.97;;;8.80;99.90;;;;;;5004452;28;20025;-78
2023/04/29 00:54:40;;;;;;;51.40;32.38;;;8.80;99.90;;;;;;5007158;28;20029;-78
2023/04/29 00:57:06;;;;;;;48.38;30.45;;;8.80;99.80;;;;;;4994442;28;20108;-78
2023/04/29 00:59:33;;;;;;;46.30;29.58;;;8.80;99.80;;;;;;5003720;28;20482;-78
2023/04/29 01:02:02;;;;;;;47.90;29.45;;;8.70;99.90;;;;;;5005194;28;20431;-78
2023/04/29 01:04:28;;;;;;;43.22;28.05;;;8.70;99.80;;;;;;5004539;28;20045;-78
2023/04/29 01:07:13;;;;;;;45.45;26.88;;;8.70;99.90;;;;;;5001107;28;20022;-78
2023/04/29 01:10:09;;;;;;;41.30;26.73;;;8.70;99.80;;;;;;5004692;28;20065;-78
2023/04/29 01:12:35;;;;;;;43.25;26.92;;;8.70;99.80;;;;;;5002468;28;20025;-78
2023/04/29 01:15:15;;;;;;;46.08;27.10;;;8.70;99.80;;;;;;5003412;28;20022;-78
2023/04/29 01:17:46;;;;;;;43.25;26.85;;;8.60;99.80;;;;;;5005757;28;20097;-78
2023/04/29 01:20:12;;;;;;;;;;;8.70;99.80;;;;;;5000772;28;20044;-76
2023/04/29 01:22:38;;;;;;;42.20;26.50;;;8.70;99.80;;;;;;5003402;28;19914;-78
2023/04/29 01:25:05;;;;;;;42.25;28.48;;;8.70;99.80;;;;;;5000751;28;20133;-78
2023/04/29 01:27:54;;;;;;;47.30;29.00;;;8.60;99.80;;;;;;5004731;28;20033;-78
2023/04/29 01:30:48;;;;;;;46.17;27.98;;;8.70;99.90;;;;;;5004888;28;20206;-78
2023/04/29 01:33:43;;;;;;;40.45;25.13;;;8.60;99.80;;;;;;4993567;28;20050;-78
2023/04/29 01:36:39;;;;;;;39.33;24.30;;;8.60;99.90;;;;;;4996628;28;20478;-78
2023/04/29 01:39:31;;;;;;;43.80;24.00;;;8.50;99.70;;;;;;5000461;28;20026;-78
2023/04/29 01:42:10;;;;;;;39.90;24.90;;;8.50;99.80;;;;;;5005833;28;20137;-78
2023/04/29 01:44:37;;;;;;;38.80;24.90;;;8.50;99.80;;;;;;5000184;28;20051;-78
2023/04/29 01:47:03;;;;;;;40.20;26.92;;;8.50;99.80;;;;;;4998050;28;20428;-78
2023/04/29 01:49:28;;;;;;;34.65;25.45;;;8.50;99.70;;;;;;5002240;28;20410;-78
2023/04/29 01:51:54;;;;;;;43.67;26.05;;;8.50;99.80;;;;;;5011983;28;20136;-78
2023/04/29 01:54:21;;;;;;;36.45;26.45;;;8.50;99.80;;;;;;4999835;28;20030;-78
2023/04/29 01:56:47;;;;;;;48.38;26.40;;;8.50;99.80;;;;;;5000774;28;20026;-78
2023/04/29 01:59:12;;;;;;;42.13;26.85;;;8.40;99.80;;;;;;5002198;28;20037;-78
2023/04/29 02:01:38;;;;;;;43.00;27.05;;;8.40;99.80;;;;;;5002459;28;20045;-78
2023/04/29 02:04:03;;;;;;;44.50;27.25;;;8.40;99.80;;;;;;5003347;28;20410;-78
2023/04/29 02:06:30;;;;;;;41.30;27.52;;;8.50;99.90;;;;;;5003577;28;20045;-78
2023/04/29 02:08:56;;;;;;;47.75;28.75;;;8.40;99.80;;;;;;4999381;28;20034;-78
2023/04/29 02:11:22;;;;;;;45.45;28.05;;;8.40;99.80;;;;;;5001712;28;20036;-78
2023/04/29 02:13:48;;;;;;;44.65;28.42;;;8.40;99.70;;;;;;5004075;28;20041;-78
2023/04/29 02:16:14;;;;;;;40.88;29.33;;;8.40;99.90;;;;;;5002389;28;20182;-78
2023/04/29 02:18:40;;;;;;;48.47;28.52;;;8.40;99.90;;;;;;5003983;28;20022;-78
2023/04/29 02:21:06;;;;;;;46.80;28.15;;;8.40;99.90;;;;;;4999684;28;20045;-78
2023/04/29 02:23:32;;;;;;;43.00;28.30;;;8.40;99.90;;;;;;5002922;28;20021;-78
2023/04/29 02:25:58;;;;;;;50.33;27.67;;;8.40;99.90;;;;;;5003227;28;20065;-78
2023/04/29 02:28:23;;;;;;;43.97;28.60;;;8.40;99.90;;;;;;4996544;28;20639;-78
2023/04/29 02:30:49;;;;;;;43.00;28.25;;;8.40;99.90;;;;;;5001510;28;20117;-78
2023/04/29 02:33:15;;;;;;;50.15;28.35;;;8.40;99.90;;;;;;4996509;28;20034;-78
2023/04/29 02:35:40;;;;;;;43.33;27.55;;;8.30;99.90;;;;;;4997796;28;20027;-78
2023/04/29 02:38:06;;;;;;;44.85;28.77;;;8.30;99.90;;;;;;5011063;28;20366;-77
2023/04/29 02:40:32;;;;;;;48.28;28.70;;;8.30;99.80;;;;;;5004955;28;20407;-78
2023/04/29 02:42:57;;;;;;;46.22;28.73;;;8.30;99.90;;;;;;5000447;28;20041;-78
2023/04/29 02:45:23;;;;;;;42.78;27.75;;;8.30;99.90;;;;;;4999100;28;20081;-78
2023/04/29 02:47:48;;;;;;;41.88;27.25;;;8.30;99.90;;;;;;4989089;28;20124;-78
2023/04/29 02:50:14;;;;;;;42.10;26.80;;;8.30;99.90;;;;;;5008821;28;20025;-78
2023/04/29 02:52:40;;;;;;;44.15;27.13;;;8.30;99.90;;;;;;5001578;28;20036;-78
2023/04/29 02:55:06;;;;;;;45.42;27.48;;;8.30;99.90;;;;;;5002280;28;20033;-78
2023/04/29 02:57:32;;;;;;;43.95;26.50;;;8.20;99.90;;;;;;4999426;28;20382;-78
2023/04/29 02:59:58;;;;;;;47.88;26.45;;;8.20;99.90;;;;;;5000746;28;20034;-78
2023/04/29 03:02:23;;;;;;;43.30;26.88;;;8.20;99.90;;;;;;4995429;28;20118;-78
2023/04/29 03:04:49;;;;;;;41.55;26.27;;;8.20;99.90;;;;;;4999828;28;20030;-78
2023/04/29 03:07:16;;;;;;;41.67;25.85;;;8.20;99.90;;;;;;5002128;28;20075;-77
2023/04/29 03:09:41;;;;;;;39.05;24.55;;;8.10;99.80;;;;;;5015067;28;20335;-78
2023/04/29 03:12:07;;;;;;;38.90;25.00;;;8.10;99.90;;;;;;5005023;28;20038;-78
2023/04/29 03:14:32;;;;;;;49.45;26.20;;;8.20;99.90;;;;;;5005393;28;20022;-77
2023/04/29 03:16:58;;;;;;;40.40;25.17;;;8.20;99.90;;;;;;4995044;28;20045;-78
2023/04/29 03:19:23;;;;;;;40.47;24.52;;;8.10;99.90;;;;;;5001761;28;20363;-78
2023/04/29 03:21:49;;;;;;;43.85;25.08;;;8.10;99.90;;;;;;5004899;28;20057;-78
2023/04/29 03:24:15;;;;;;;40.15;24.92;;;8.20;99.90;;;;;;5002796;28;20025;-77
2023/04/29 03:26:41;;;;;;;39.20;23.88;;;8.10;99.90;;;;;;5004454;28;20046;-78
2023/04/29 03:29:07;;;;;;;40.60;24.10;;;8.10;99.90;;;;;;5005093;28;20435;-77
2023/04/29 03:31:33;;;;;;;41.00;24.15;;;8.10;99.90;;;;;;5015648;28;20045;-78
2023/04/29 03:33:58;;;;;;;39.28;23.63;;;8.10;99.90;;;;;;5005791;28;20355;-78
2023/04/29 03:36:24;;;;;;;36.92;23.67;;;8.10;99.90;;;;;;5006661;28;20100;-77
2023/04/29 03:38:49;;;;;;;39.97;23.45;;;8.00;99.90;;;;;;5006074;28;20331;-78
2023/04/29 03:41:15;;;;;;;38.10;24.00;;;8.10;99.90;;;;;;5002887;28;20053;-78
2023/04/29 03:43:43;;;;;;;39.00;24.05;;;8.10;99.90;;;;;;5010405;28;20043;-78
2023/04/29 03:46:08;;;;;;;36.88;22.67;;;8.00;99.90;;;;;;5013196;28;20044;-78
2023/04/29 03:48:34;;;;;;;35.53;23.50;;;8.00;99.80;;;;;;5004092;28;20026;-78
2023/04/29 03:51:00;;;;;;;39.92;23.75;;;8.00;99.90;;;;;;5008324;28;20435;-77
2023/04/29 03:53:25;;;;;;;37.42;23.45;;;7.90;99.80;;;;;;5004340;28;20117;-77
2023/04/29 03:55:51;;;;;;;38.60;24.15;;;8.00;99.90;;;;;;5004615;28;20108;-77
2023/04/29 03:58:16;;;;;;;37.88;23.45;;;7.90;99.80;;;;;;5002198;28;20137;-77
2023/04/29 04:00:42;;;;;;;38.10;24.88;;;7.80;99.70;;;;;;5000912;28;20033;-77
2023/04/29 04:03:07;;;;;;;38.95;24.80;;;7.80;99.80;;;;;;5001734;28;20073;-78
2023/04/29 04:05:33;;;;;;;43.47;25.15;;;7.70;99.70;;;;;;5006313;28;20381;-77
2023/04/29 04:07:59;;;;;;;44.83;26.30;;;7.70;99.80;;;;;;5006188;28;20080;-77
2023/04/29 04:10:25;;;;;;;42.33;25.42;;;7.80;99.80;;;;;;5013652;28;20491;-77
2023/04/29 04:12:50;;;;;;;43.35;24.38;;;7.80;99.90;;;;;;5012748;28;20153;-77
2023/04/29 04:15:16;;;;;;;43.05;25.25;;;7.80;99.80;;;;;;5002843;28;20022;-77
2023/04/29 04:17:42;;;;;;;42.60;24.95;;;7.80;99.80;;;;;;5001263;28;20025;-77
2023/04/29 04:20:08;;;;;;;41.78;24.63;;;7.80;99.80;;;;;;5000116;28;20040;-77
2023/04/29 04:22:33;;;;;;;43.85;25.00;;;7.70;99.70;;;;;;5007368;28;20037;-77
2023/04/29 04:24:58;;;;;;;34.65;22.50;;;7.80;99.80;;;;;;5008434;28;20045;-77
2023/04/29 04:27:24;;;;;;;38.42;24.33;;;7.80;99.80;;;;;;5003993;28;20022;-77
2023/04/29 04:29:53;;;;;;;38.80;23.13;;;7.70;99.70;;;;;;5003441;28;20415;-82
2023/04/29 04:32:22;;;;;;;37.08;23.33;;;7.70;99.70;;;;;;5000827;28;20026;-82
2023/04/29 04:34:49;;;;;;;43.33;24.00;;;7.80;99.80;;;;;;5004648;28;20025;-82
2023/04/29 04:37:15;;;;;;;39.97;24.45;;;7.80;99.70;;;;;;5010469;28;20029;-83
2023/04/29 04:39:41;;;;;;;35.42;22.17;;;7.80;99.70;;;;;;4998527;28;20466;-83
2023/04/29 04:42:06;;;;;;;37.72;22.75;;;7.80;99.70;;;;;;5010087;28;20073;-82
2023/04/29 04:44:32;;;;;;;38.15;22.38;;;7.80;99.60;;;;;;5012916;28;20072;-82
2023/04/29 04:47:00;;;;;;;34.70;21.80;;;7.80;99.70;;;;;;5001556;28;20032;-82
2023/04/29 04:49:26;;;;;;;35.35;22.52;;;7.80;99.60;;;;;;4999500;28;21033;-82
2023/04/29 04:51:51;;;;;;;36.80;22.70;;;7.80;99.60;;;;;;5010603;28;20021;-81
2023/04/29 04:54:17;;;;;;;37.88;23.02;;;7.80;99.50;;;;;;5001505;28;20052;-79
2023/04/29 04:56:43;;;;;;;36.10;21.63;;;7.90;99.50;;;;;;5000934;28;20319;-80
2023/04/29 04:59:08;;;;;;;35.00;21.55;;;8.00;99.60;;;;;;5006701;28;20046;-80
2023/04/29 05:01:34;;;;;;;38.45;22.63;;;8.00;99.50;;;;;;5003184;28;20029;-81
2023/04/29 05:04:01;;;;;;;32.25;22.33;;;8.00;99.50;;;;;;5003544;28;20022;-80
2023/04/29 05:06:26;;;;;;;34.72;22.13;;;8.10;99.40;;;;;;5008135;28;20114;-80
2023/04/29 05:08:52;;;;;;;32.15;20.90;;;8.10;99.30;;;;;;5002505;28;20300;-80
2023/04/29 05:11:19;;;;;;;32.42;21.58;;;8.20;99.30;;;;;;5006557;28;20105;-80
2023/04/29 05:13:45;;;;;;;35.35;23.20;;;8.30;99.30;;;;;;5001759;28;20029;-81
2023/04/29 05:16:10;;;;;;;32.03;21.95;;;8.30;99.20;;;;;;4994605;28;20037;-80
2023/04/29 05:18:39;;;;;;;30.75;21.33;;;8.30;98.90;;;;;;5000015;28;20399;-80
2023/04/29 05:21:04;;;;;;;30.73;20.60;;;8.40;99.00;;;;;;5004179;28;20120;-79
2023/04/29 05:23:30;;;;;;;32.75;20.80;;;8.40;98.80;;;;;;5006546;28;20062;-80
2023/04/29 05:25:55;;;;;;;33.40;20.30;;;8.50;98.90;;;;;;5007273;28;20065;-80
2023/04/29 05:28:21;;;;;;;28.67;19.92;;;8.50;98.90;;;;;;4994992;28;20041;-79
2023/04/29 05:30:50;;;;;;;30.23;19.77;;;8.50;98.80;;;;;;5008063;28;20022;-78
2023/04/29 05:33:15;;;;;;;27.55;18.50;;;8.50;98.80;;;;;;5000881;28;20146;-78
2023/04/29 05:35:41;;;;;;;28.77;19.55;;;8.50;98.80;;;;;;4997764;28;20439;-79
2023/04/29 05:38:07;;;;;;;30.73;19.67;;;8.40;98.60;;;;;;5004654;28;20032;-79
2023/04/29 05:40:32;;;;;;;34.22;20.55;;;8.50;98.80;;;;;;5002677;28;20112;-78
2023/04/29 05:42:58;;;;;;;34.72;20.58;;;8.60;98.80;;;;;;5000178;28;20034;-78
2023/04/29 05:45:24;;;;;;;29.33;19.63;;;8.60;98.50;;;;;;5003953;28;20045;-78
2023/04/29 05:47:49;;;;;;;28.58;19.42;;;8.50;98.30;;;;;;5002632;28;20033;-78
2023/04/29 05:50:15;;;;;;;30.23;19.52;;;8.60;98.40;;;;;;5001833;28;20030;-78
2023/04/29 05:52:41;;;;;;;26.90;19.10;;;8.60;98.40;;;;;;4999664;28;20022;-78
2023/04/29 05:55:06;;;;;;;29.85;19.85;;;8.70;98.30;;;;;;5003362;28;20059;-79
2023/04/29 05:57:32;;;;;;;24.45;16.75;;;8.60;98.00;;;;;;5002841;28;20034;-79
2023/04/29 05:59:58;;;;;;;27.45;18.58;;;8.60;98.10;;;;;;5006350;28;20461;-79
2023/04/29 06:02:24;;;;;;;28.02;18.48;;;8.50;98.00;;;;;;4993021;28;20057;-78
2023/04/29 06:04:50;;;;;;;24.05;18.45;;;8.60;98.10;;;;;;5007845;28;20146;-76
2023/04/29 06:07:16;;;;;;;26.60;18.27;;;8.60;98.20;;;;;;5007756;28;20103;-78
2023/04/29 06:09:42;;;;;;;25.10;18.05;;;8.60;98.00;;;;;;5008177;28;20085;-77
2023/04/29 06:12:08;;;;;;;25.65;18.17;;;8.60;98.00;;;;;;5003239;28;20369;-76
2023/04/29 06:14:34;;;;;;;26.20;17.50;;;8.70;98.20;;;;;;5002511;28;20094;-76
2023/04/29 06:16:59;;;;;;;22.65;17.15;;;8.80;98.00;;;;;;5007847;28;20398;-76
2023/04/29 06:19:25;;;;;;;27.08;17.70;;;8.80;97.90;;;;;;5002754;28;20029;-76
2023/04/29 06:21:50;;;;;;;25.45;17.80;;;8.80;97.70;;;;;;4998608;28;20044;-76
2023/04/29 06:24:16;;;;;;;23.50;15.80;;;8.80;97.50;;;;;;4998046;28;20118;-76
2023/04/29 06:26:41;;;;;;;21.05;16.00;;;8.80;97.60;;;;;;5005429;28;20053;-76
2023/04/29 06:29:07;;;;;;;23.92;17.23;;;8.90;97.30;;;;;;5003893;28;20123;-78
2023/04/29 06:31:32;;;;;;;21.60;15.30;;;8.90;97.30;;;;;;4998756;28;20026;-78
2023/04/29 06:33:58;;;;;;;24.13;15.82;;;9.10;97.30;;;;;;4994882;28;20085;-78
2023/04/29 06:36:23;;;;;;;24.13;16.70;;;9.30;97.00;;;;;;4996147;28;20780;-79
2023/04/29 06:38:49;;;;;;;25.55;15.73;;;9.20;96.60;;;;;;4999103;28;20053;-79
2023/04/29 06:41:14;;;;;;;23.00;16.15;;;9.30;96.70;;;;;;4997191;28;20058;-79
2023/04/29 06:43:42;;;;;;;20.42;15.45;;;9.30;96.40;;;;;;5002016;28;20069;-79
2023/04/29 06:46:07;;;;;;;22.33;16.15;;;9.50;96.50;;;;;;4998680;28;20088;-80
2023/04/29 06:48:33;;;;;;;20.08;15.02;;;9.50;96.10;;;;;;5003399;28;20029;-80
2023/04/29 06:50:58;;;;;;;20.02;13.57;;;9.40;96.00;;;;;;5005181;28;20101;-80
2023/04/29 06:53:25;;;;;;;18.88;13.98;;;9.40;95.40;;;;;;5002826;28;20132;-80
2023/04/29 06:55:50;;;;;;;18.17;12.38;;;9.40;95.00;;;;;;5011334;28;20048;-80
2023/04/29 06:58:17;;;;;;;19.33;12.52;;;9.60;95.00;;;;;;5003801;28;20132;-79
2023/04/29 07:00:45;;;;;;;14.95;11.00;;;9.60;94.70;;;;;;4994009;28;20120;-79
2023/04/29 07:03:10;;;;;;;19.00;11.85;;;9.50;94.00;;;;;;4992874;28;20475;-79
2023/04/29 07:05:39;;;;;;;17.38;11.98;;;9.60;94.10;;;;;;5002680;28;20064;-79
2023/04/29 07:08:05;;;;;;;18.90;12.70;;;9.70;94.00;;;;;;5004004;28;20030;-79
2023/04/29 07:10:31;;;;;;;24.42;12.68;;;10.10;94.60;;;;;;4998750;28;20029;-79
2023/04/29 07:12:56;;;;;;;18.10;11.82;;;10.00;93.80;;;;;;5007191;28;20429;-79
2023/04/29 07:15:21;;;;;;;17.10;10.80;;;10.10;93.70;;;;;;5012082;28;20052;-79
2023/04/29 07:17:47;;;;;;;18.50;11.40;;;9.90;92.80;;;;;;5020156;28;20029;-79
2023/04/29 07:20:13;;;;;;;15.63;10.45;;;10.20;93.70;;;;;;5000773;28;20026;-79
2023/04/29 07:22:38;;;;;;;15.40;10.25;;;10.30;92.90;;;;;;5014667;28;20112;-79
2023/04/29 07:25:04;;;;;;;18.10;12.07;;;10.60;93.50;;;;;;5004718;28;20581;-79
2023/04/29 07:27:33;;;;;;;15.55;11.23;;;10.60;92.20;;;;;;5011604;28;20029;-79
2023/04/29 07:30:00;;;;;;;16.38;11.15;;;10.50;91.40;;;;;;5006104;28;20069;-79
2023/04/29 07:32:25;;;;;;;16.83;11.40;;;10.60;91.90;;;;;;4997936;28;20465;-79
2023/04/29 07:34:51;;;;;;;14.43;10.40;;;10.50;91.00;;;;;;4999744;28;20049;-78
2023/04/29 07:37:17;;;;;;;19.88;11.00;;;10.90;91.90;;;;;;5002986;28;20073;-81
2023/04/29 07:39:42;;;;;;;17.50;11.23;;;11.00;91.90;;;;;;5020545;28;20094;-76
2023/04/29 07:42:08;;;;;;;17.55;10.20;;;11.10;91.50;;;;;;5017463;28;20029;-76
2023/04/29 07:44:33;;;;;;;17.15;10.30;;;11.00;90.00;;;;;;5007670;28;20025;-76
2023/04/29 07:46:59;;;;;;;14.98;9.95;;;11.10;90.10;;;;;;5001154;28;20244;-74
2023/04/29 07:49:25;;;;;;;15.55;9.50;;;10.90;88.40;;;;;;4999556;28;20431;-75
2023/04/29 07:51:50;;;;;;;16.73;10.07;;;11.00;89.30;;;;;;5007125;28;20275;-74
2023/04/29 07:54:16;;;;;;;17.48;9.48;;;11.20;89.00;;;;;;5000654;28;20441;-77
2023/04/29 07:56:41;;;;;;;16.42;9.50;;;11.30;88.60;;;;;;5003422;28;20379;-76
2023/04/29 07:59:07;;;;;;;18.85;9.85;;;11.20;88.30;;;;;;5018215;28;20124;-76
2023/04/29 08:01:32;;;;;;;14.52;9.27;;;11.30;89.00;;;;;;5007243;28;20069;-76
2023/04/29 08:03:57;;;;;;;15.32;9.38;;;11.40;87.80;;;;;;4997787;28;20193;-76
2023/04/29 08:06:23;;;;;;;18.80;9.50;;;11.20;86.30;;;;;;5004659;28;20217;-75
2023/04/29 08:08:49;;;;;;;16.17;9.02;;;11.10;87.40;;;;;;5007244;28;20104;-76
2023/04/29 08:11:18;;;;;;;13.25;9.23;;;11.30;86.40;;;;;;5002108;28;20061;-76
2023/04/29 08:13:44;;;;;;;14.13;8.70;;;11.20;85.40;;;;;;4990864;28;20308;-76
2023/04/29 08:16:10;;;;;;;16.17;9.48;;;11.50;87.50;;;;;;5001835;28;20095;-77
2023/04/29 08:18:35;;;;;;;14.90;9.32;;;11.70;85.90;;;;;;4992868;28;20553;-76
2023/04/29 08:21:01;;;;;;;16.60;8.63;;;11.90;85.20;;;;;;4992922;28;20354;-78
2023/04/29 08:23:27;;;;;;;14.07;8.68;;;11.90;83.60;;;;;;5005270;28;20107;-78
2023/04/29 08:25:54;;;;;;;12.48;8.57;;;12.20;83.00;;;;;;5005620;28;20053;-77
2023/04/29 08:28:20;;;;;;;18.25;8.52;;;12.20;81.60;;;;;;4996617;28;20368;-79
2023/04/29 08:30:46;;;;;;;14.68;8.77;;;12.70;81.70;;;;;;5008364;28;20022;-79
2023/04/29 08:33:11;;;;;;;23.25;9.90;;;13.00;81.10;;;;;;4995845;28;20523;-78
2023/04/29 08:35:37;;;;;;;16.23;7.97;;;13.00;81.10;;;;;;5007046;28;20077;-78
2023/04/29 08:38:05;;;;;;;13.63;8.30;;;12.60;78.20;;;;;;5003664;28;20117;-78
2023/04/29 08:40:34;;;;;;;17.17;7.40;;;12.90;78.70;;;;;;5002865;28;20028;-78
2023/04/29 08:43:00;;;;;;;20.42;9.02;;;13.20;76.80;;;;;;4999677;28;20048;-79
2023/04/29 08:45:26;;;;;;;15.18;7.40;;;13.60;77.70;;;;;;5006039;28;20026;-78
2023/04/29 08:47:55;;;;;;;11.45;7.47;;;14.00;77.00;;;;;;4989302;28;20050;-78
2023/04/29 08:50:21;;;;;;;18.58;8.80;;;14.20;77.10;;;;;;5001937;28;20164;-78
2023/04/29 08:52:46;;;;;;;26.55;10.02;;;13.90;74.80;;;;;;5002995;28;20037;-78
2023/04/29 08:55:12;;;;;;;14.07;8.10;;;13.40;75.10;;;;;;5004624;28;20021;-78
2023/04/29 08:57:39;;;;;;;18.80;8.85;;;13.50;76.10;;;;;;5003819;28;20048;-77
2023/04/29 09:00:09;;;;;;;17.08;8.10;;;13.70;77.60;;;;;;4993736;28;20026;-77
2023/04/29 09:02:42;;;;;;;13.77;8.40;;;13.60;76.70;;;;;;4992854;28;20140;-78
2023/04/29 09:05:09;;;;;;;12.75;8.02;;;13.40;76.30;;;;;;5001383;28;20057;-78
2023/04/29 09:07:37;;;;;;;15.68;8.45;;;13.60;74.90;;;;;;5005628;28;20104;-79
2023/04/29 09:10:06;;;;;;;11.88;7.15;;;13.70;76.20;;;;;;5005521;28;20037;-79
2023/04/29 09:12:32;;;;;;;10.98;7.75;;;14.00;75.70;;;;;;4994132;28;20030;-78
2023/04/29 09:14:57;;;;;;;10.73;6.70;;;14.30;75.30;;;;;;5004251;28;20052;-77
2023/04/29 09:17:46;;;;;;;8.95;6.35;;;13.80;71.80;;;;;;5003358;28;20060;-78
2023/04/29 09:20:20;;;;;;;13.45;5.90;;;13.90;70.10;;;;;;4997234;28;20030;-78
2023/04/29 09:23:00;;;;;;;9.57;5.47;;;14.00;71.50;;;;;;4997402;28;20030;-78
2023/04/29 09:25:26;;;;;;;10.73;6.28;;;14.50;71.10;;;;;;5005140;28;20050;-79
2023/04/29 09:27:52;;;;;;;9.45;6.22;;;14.60;71.50;;;;;;4996898;28;20038;-78
2023/04/29 09:30:18;;;;;;;11.63;6.53;;;14.20;69.10;;;;;;5004483;28;20029;-79
2023/04/29 09:32:44;;;;;;;14.07;6.90;;;14.60;71.50;;;;;;4999344;28;20022;-78
2023/04/29 09:35:24;;;;;;;10.68;6.75;;;14.20;69.10;;;;;;5007102;28;20017;-78
2023/04/29 09:37:53;;;;;;;9.30;5.30;;;14.20;70.00;;;;;;5007283;28;20327;-77
2023/04/29 09:40:31;;;;;;;13.98;7.03;;;13.80;66.30;;;;;;4993157;28;20403;-77
2023/04/29 09:42:58;;;;;;;11.02;5.57;;;13.60;66.60;;;;;;5001253;28;20034;-77
2023/04/29 09:45:37;;;;;;;11.00;6.05;;;14.00;69.60;;;;;;5002776;28;20022;-77
2023/04/29 09:48:05;;;;;;;11.27;5.93;;;14.20;68.60;;;;;;4993412;28;20025;-76
2023/04/29 09:50:31;;;;;;;10.40;6.05;;;14.10;67.80;;;;;;4999048;28;20128;-77
2023/04/29 09:52:57;;;;;;;11.27;5.78;;;14.50;66.70;;;;;;4996041;28;20018;-78
2023/04/29 09:55:22;;;;;;;9.15;5.68;;;14.20;65.90;;;;;;5004079;28;20040;-78
2023/04/29 09:57:48;;;;;;;10.70;5.75;;;14.40;65.80;;;;;;5007452;28;20137;-78
2023/04/29 10:00:14;;;;;;;9.02;6.35;;;15.00;67.00;;;;;;5004067;28;20056;-78
2023/04/29 10:02:42;;;;;;;11.48;5.82;;;14.70;64.70;;;;;;5003782;28;20110;-78
2023/04/29 10:05:09;;;;;;;9.40;5.50;;;14.90;64.00;;;;;;5007978;28;20030;-78
2023/04/29 10:07:38;;;;;;;8.93;5.80;;;15.10;65.10;;;;;;5009011;28;20470;-78
2023/04/29 10:10:05;;;;;;;9.63;5.65;;;15.50;64.20;;;;;;5003727;28;20451;-78
2023/04/29 10:12:32;;;;;;;10.63;5.53;;;15.80;63.40;;;;;;5007576;28;20029;-79
2023/04/29 10:15:06;;;;;;;11.77;6.50;;;16.10;64.00;;;;;;5012214;28;20370;-78
2023/04/29 10:17:43;;;;;;;11.85;6.00;;;15.60;62.60;;;;;;4994437;28;20355;-78
2023/04/29 10:20:18;;;;;;;11.98;5.68;;;15.20;60.90;;;;;;4999860;28;20026;-78
2023/04/29 10:22:55;;;;;;;11.30;5.03;;;15.40;61.50;;;;;;4996723;28;20323;-78
2023/04/29 10:25:23;;;;;;;9.70;5.97;;;15.60;63.60;;;;;;4984343;28;20038;-78
2023/04/29 10:27:52;;;;;;;11.32;6.53;;;15.50;61.10;;;;;;5002377;28;20053;-77
2023/04/29 10:30:19;;;;;;;12.18;6.00;;;15.90;64.70;;;;;;5003055;28;20254;-78
2023/04/29 10:32:45;;;;;;;10.27;6.30;;;16.40;63.90;;;;;;5009650;28;20070;-79
2023/04/29 10:35:13;;;;;;;12.52;6.63;;;16.20;60.10;;;;;;5002208;28;20124;-79
2023/04/29 10:37:40;;;;;;;11.52;5.80;;;16.20;65.00;;;;;;5005672;28;20057;-79
2023/04/29 10:40:12;;;;;;;11.30;5.88;;;16.20;57.90;;;;;;5004211;28;20116;-79
2023/04/29 10:42:53;;;;;;;10.68;5.60;;;16.00;60.20;;;;;;5003254;28;20058;-80
2023/04/29 10:45:31;;;;;;;10.52;5.45;;;15.90;61.40;;;;;;5000142;28;20968;-80
2023/04/29 10:48:04;;;;;;;9.50;6.07;;;16.60;61.30;;;;;;5007633;28;20037;-79
2023/04/29 10:50:45;;;;;;;12.98;6.45;;;15.90;59.90;;;;;;5015277;28;20033;-80
2023/04/29 10:53:11;;;;;;;;;;;15.90;62.40;;;;;;5004596;28;20034;-79
2023/04/29 10:55:37;;;;;;;9.82;6.25;;;15.50;62.00;;;;;;4999712;28;20011;-79
2023/04/29 10:58:04;;;;;;;10.10;6.00;;;16.10;63.10;;;;;;5010296;28;20451;-79
2023/04/29 11:00:32;;;;;;;10.77;6.65;;;16.30;61.40;;;;;;5010394;28;20038;-80
2023/04/29 11:03:00;;;;;;;11.48;6.75;;;16.40;63.70;;;;;;5005305;28;20030;-79
2023/04/29 11:05:33;;;;;;;12.25;7.03;;;15.80;62.30;;;;;;5005963;28;20021;-79
2023/04/29 11:08:23;;;;;;;11.95;7.63;;;15.80;62.90;;;;;;5003822;28;20419;-79
2023/04/29 11:10:52;;;;;;;11.10;6.63;;;16.00;61.60;;;;;;5014633;28;20468;-79
2023/04/29 11:13:25;;;;;;;9.85;6.35;;;16.00;61.10;;;;;;5004654;28;20050;-79
2023/04/29 11:15:52;;;;;;;10.70;6.93;;;16.30;60.60;;;;;;4996098;28;20458;-79
2023/04/29 11:18:18;;;;;;;10.55;6.32;;;15.80;61.10;;;;;;5002379;28;20157;-80
2023/04/29 11:21:05;;;;;;;9.82;6.38;;;16.10;59.40;;;;;;5014121;28;20510;-79
2023/04/29 11:23:33;;;;;;;8.32;6.03;;;16.20;61.70;;;;;;5009334;28;20040;-78
2023/04/29 11:26:00;;;;;;;10.98;6.13;;;15.60;62.60;;;;;;5003771;28;20081;-79
2023/04/29 11:28:27;;;;;;;9.00;5.45;;;15.70;62.40;;;;;;5004591;28;20427;-79
2023/04/29 11:30:53;;;;;;;12.35;5.97;;;16.30;60.70;;;;;;5007379;28;20026;-78
2023/04/29 11:33:21;;;;;;;12.13;7.10;;;16.00;62.90;;;;;;5000358;28;20068;-79
2023/04/29 11:35:47;;;;;;;9.60;6.30;;;15.40;61.50;;;;;;5004461;28;20540;-79
2023/04/29 11:38:13;;;;;;;13.10;6.00;;;15.10;62.50;;;;;;5006074;28;20109;-78
2023/04/29 11:40:47;;;;;;;9.68;6.28;;;15.10;62.40;;;;;;5006462;28;20041;-79
2023/04/29 11:43:17;;;;;;;8.75;6.00;;;16.00;62.20;;;;;;5005957;28;20033;-80
2023/04/29 11:45:47;;;;;;;11.13;5.63;;;17.00;58.70;;;;;;4995997;28;20509;-78
2023/04/29 11:48:20;;;;;;;10.85;6.00;;;16.70;58.20;;;;;;5001655;28;20026;-76
2023/04/29 11:50:49;;;;;;;8.20;5.63;;;15.30;58.80;;;;;;5005784;28;20322;-77
2023/04/29 11:53:14;;;;;;;9.43;5.50;;;16.00;59.20;;;;;;5008522;28;20026;-77
2023/04/29 11:55:45;;;;;;;8.18;5.07;;;16.90;57.90;;;;;;5002208;28;20045;-78
2023/04/29 11:58:10;;;;;;;9.43;5.95;;;17.60;56.20;;;;;;5010254;28;20116;-76
2023/04/29 12:00:37;;;;;;;11.10;5.85;;;16.90;56.80;;;;;;5016142;28;20041;-76
2023/04/29 12:03:12;;;;;;;9.25;5.38;;;15.80;57.50;;;;;;4999949;28;20026;-78
2023/04/29 12:05:37;;;;;;;9.07;5.70;;;15.30;60.00;;;;;;5005255;28;20068;-78
2023/04/29 12:08:06;;;;;;;10.68;5.90;;;15.40;62.40;;;;;;5004549;28;20036;-80
2023/04/29 12:10:35;;;;;;;9.48;5.82;;;15.50;60.80;;;;;;5003219;28;20512;-77
2023/04/29 12:13:02;;;;;;;11.15;6.35;;;15.00;61.80;;;;;;5017614;28;20053;-78
2023/04/29 12:15:28;;;;;;;9.60;6.10;;;14.90;62.50;;;;;;5010851;28;20431;-77
2023/04/29 12:17:54;;;;;;;9.32;5.95;;;14.70;63.70;;;;;;5005211;28;20030;-78
2023/04/29 12:20:19;;;;;;;11.55;5.85;;;15.50;61.80;;;;;;5007581;28;20030;-78
2023/04/29 12:22:45;;;;;;;9.32;5.45;;;16.10;58.40;;;;;;5018451;28;20552;-77
2023/04/29 12:25:11;;;;;;;11.75;5.70;;;16.80;57.90;;;;;;5012373;28;20423;-78
2023/04/29 12:27:41;;;;;;;11.13;5.57;;;17.00;53.70;;;;;;5015486;28;20061;-78
2023/04/29 12:30:11;;;;;;;6.68;4.40;;;16.70;56.50;;;;;;5007336;28;20064;-77
2023/04/29 12:32:37;;;;;;;9.07;4.80;;;17.20;55.10;;;;;;5008555;28;20116;-78
2023/04/29 12:35:03;;;;;;;7.25;4.78;;;17.70;51.40;;;;;;5009408;28;20037;-78
2023/04/29 12:37:29;;;;;;;7.57;4.40;;;17.80;50.70;;;;;;5006426;28;20137;-78
2023/04/29 12:39:54;;;;;;;7.80;4.45;;;18.30;53.30;;;;;;5002906;28;20121;-78